sensor_id;sensor_type;location;lat;lon;timestamp;P1;durP1;ratioP1;P2;durP2;ratioP2
53843;SDS011;39744;53.314;5.710;2023-06-22T00:01:51;30.27;;;14.70;;
53843;SDS011;39744;53.314;5.710;2023-06-22T00:04:17;23.33;;;13.07;;
53843;SDS011;39744;53.314;5.710;2023-06-22T00:06:43;27.10;;;15.45;;
53843;SDS011;39744;53.314;5.710;2023-06-22T00:09:09;23.70;;;14.02;;
53843;SDS011;39744;53.314;5.710;2023-06-22T00:11:35;23.92;;;14.07;;
53843;SDS011;39744;53.314;5.710;2023-06-22T00:14:02;24.08;;;13.20;;
53843;SDS011;39744;53.314;5.710;2023-06-22T00:16:28;23.52;;;13.48;;
53843;SDS011;39744;53.314;5.710;2023-06-22T00:18:54;27.42;;;14.05;;
53843;SDS011;39744;53.314;5.710;2023-06-22T00:21:20;29.13;;;16.10;;
53843;SDS011;39744;53.314;5.710;2023-06-22T00:23:46;24.35;;;13.00;;
53843;SDS011;39744;53.314;5.710;2023-06-22T00:26:13;24.83;;;14.43;;
53843;SDS011;39744;53.314;5.710;2023-06-22T00:28:39;27.95;;;14.15;;
53843;SDS011;39744;53.314;5.710;2023-06-22T00:31:05;28.17;;;14.60;;
53843;SDS011;39744;53.314;5.710;2023-06-22T00:33:31;26.45;;;14.07;;
53843;SDS011;39744;53.314;5.710;2023-06-22T00:35:57;32.63;;;16.70;;
53843;SDS011;39744;53.314;5.710;2023-06-22T00:38:23;35.10;;;15.75;;
53843;SDS011;39744;53.314;5.710;2023-06-22T00:40:49;34.50;;;16.55;;
53843;SDS011;39744;53.314;5.710;2023-06-22T00:43:15;36.05;;;15.90;;
53843;SDS011;39744;53.314;5.710;2023-06-22T00:45:41;37.95;;;16.75;;
53843;SDS011;39744;53.314;5.710;2023-06-22T00:48:07;36.85;;;15.77;;
53843;SDS011;39744;53.314;5.710;2023-06-22T00:50:34;42.88;;;17.33;;
53843;SDS011;39744;53.314;5.710;2023-06-22T00:53:01;45.83;;;18.00;;
53843;SDS011;39744;53.314;5.710;2023-06-22T00:55:32;35.05;;;16.75;;
53843;SDS011;39744;53.314;5.710;2023-06-22T00:57:58;40.25;;;17.70;;
53843;SDS011;39744;53.314;5.710;2023-06-22T01:00:25;38.10;;;16.58;;
53843;SDS011;39744;53.314;5.710;2023-06-22T01:02:51;49.08;;;19.83;;
53843;SDS011;39744;53.314;5.710;2023-06-22T01:05:21;39.17;;;17.70;;
53843;SDS011;39744;53.314;5.710;2023-06-22T01:12:59;73.40;;;20.25;;
53843;SDS011;39744;53.314;5.710;2023-06-22T01:15:36;62.72;;;20.52;;
53843;SDS011;39744;53.314;5.710;2023-06-22T01:18:06;54.80;;;22.23;;
53843;SDS011;39744;53.314;5.710;2023-06-22T01:20:34;50.22;;;19.92;;
53843;SDS011;39744;53.314;5.710;2023-06-22T01:23:13;42.10;;;19.52;;
53843;SDS011;39744;53.314;5.710;2023-06-22T01:26:05;34.58;;;20.00;;
53843;SDS011;39744;53.314;5.710;2023-06-22T01:28:41;44.78;;;18.52;;
53843;SDS011;39744;53.314;5.710;2023-06-22T01:31:08;48.50;;;21.23;;
53843;SDS011;39744;53.314;5.710;2023-06-22T01:33:37;50.50;;;20.02;;
53843;SDS011;39744;53.314;5.710;2023-06-22T01:36:03;33.30;;;18.88;;
53843;SDS011;39744;53.314;5.710;2023-06-22T01:38:30;45.70;;;18.90;;
53843;SDS011;39744;53.314;5.710;2023-06-22T01:40:57;33.47;;;17.48;;
53843;SDS011;39744;53.314;5.710;2023-06-22T01:43:24;38.10;;;20.35;;
53843;SDS011;39744;53.314;5.710;2023-06-22T01:45:51;34.25;;;20.65;;
53843;SDS011;39744;53.314;5.710;2023-06-22T01:48:17;38.40;;;20.38;;
53843;SDS011;39744;53.314;5.710;2023-06-22T01:50:43;65.78;;;21.27;;
53843;SDS011;39744;53.314;5.710;2023-06-22T01:53:10;33.85;;;19.83;;
53843;SDS011;39744;53.314;5.710;2023-06-22T01:55:36;42.65;;;22.48;;
53843;SDS011;39744;53.314;5.710;2023-06-22T01:58:02;70.28;;;25.55;;
53843;SDS011;39744;53.314;5.710;2023-06-22T02:00:28;46.20;;;23.33;;
53843;SDS011;39744;53.314;5.710;2023-06-22T02:02:59;38.25;;;25.30;;
53843;SDS011;39744;53.314;5.710;2023-06-22T02:05:26;37.13;;;26.25;;
53843;SDS011;39744;53.314;5.710;2023-06-22T02:08:07;38.75;;;24.60;;
53843;SDS011;39744;53.314;5.710;2023-06-22T02:10:34;41.40;;;25.10;;
53843;SDS011;39744;53.314;5.710;2023-06-22T02:13:02;40.25;;;24.42;;
53843;SDS011;39744;53.314;5.710;2023-06-22T02:15:28;38.08;;;25.27;;
53843;SDS011;39744;53.314;5.710;2023-06-22T02:17:55;48.63;;;28.85;;
53843;SDS011;39744;53.314;5.710;2023-06-22T02:20:21;50.60;;;28.83;;
53843;SDS011;39744;53.314;5.710;2023-06-22T02:22:47;50.95;;;29.90;;
53843;SDS011;39744;53.314;5.710;2023-06-22T02:25:13;42.33;;;26.40;;
53843;SDS011;39744;53.314;5.710;2023-06-22T02:27:39;40.88;;;25.33;;
53843;SDS011;39744;53.314;5.710;2023-06-22T02:30:06;48.13;;;28.48;;
53843;SDS011;39744;53.314;5.710;2023-06-22T02:32:33;46.70;;;28.52;;
53843;SDS011;39744;53.314;5.710;2023-06-22T02:34:59;41.63;;;25.17;;
53843;SDS011;39744;53.314;5.710;2023-06-22T02:37:29;48.15;;;28.38;;
53843;SDS011;39744;53.314;5.710;2023-06-22T02:39:55;43.17;;;27.10;;
53843;SDS011;39744;53.314;5.710;2023-06-22T02:42:21;46.58;;;27.65;;
53843;SDS011;39744;53.314;5.710;2023-06-22T02:44:47;62.88;;;31.42;;
53843;SDS011;39744;53.314;5.710;2023-06-22T02:47:13;52.97;;;29.42;;
53843;SDS011;39744;53.314;5.710;2023-06-22T02:49:39;54.20;;;31.05;;
53843;SDS011;39744;53.314;5.710;2023-06-22T02:52:05;51.83;;;28.88;;
53843;SDS011;39744;53.314;5.710;2023-06-22T02:54:31;53.00;;;29.65;;
53843;SDS011;39744;53.314;5.710;2023-06-22T02:56:58;48.55;;;27.60;;
53843;SDS011;39744;53.314;5.710;2023-06-22T02:59:27;50.03;;;29.55;;
53843;SDS011;39744;53.314;5.710;2023-06-22T03:01:53;53.90;;;29.40;;
53843;SDS011;39744;53.314;5.710;2023-06-22T03:04:20;53.33;;;29.52;;
53843;SDS011;39744;53.314;5.710;2023-06-22T03:06:46;55.55;;;31.52;;
53843;SDS011;39744;53.314;5.710;2023-06-22T03:09:16;67.78;;;33.72;;
53843;SDS011;39744;53.314;5.710;2023-06-22T03:11:42;70.13;;;31.10;;
53843;SDS011;39744;53.314;5.710;2023-06-22T03:14:08;92.03;;;31.30;;
53843;SDS011;39744;53.314;5.710;2023-06-22T03:16:34;45.53;;;27.75;;
53843;SDS011;39744;53.314;5.710;2023-06-22T03:19:01;49.70;;;27.30;;
53843;SDS011;39744;53.314;5.710;2023-06-22T03:21:28;120.78;;;30.63;;
53843;SDS011;39744;53.314;5.710;2023-06-22T03:23:54;146.82;;;32.40;;
53843;SDS011;39744;53.314;5.710;2023-06-22T03:26:20;143.32;;;29.35;;
53843;SDS011;39744;53.314;5.710;2023-06-22T03:28:46;53.08;;;27.45;;
53843;SDS011;39744;53.314;5.710;2023-06-22T03:31:12;66.28;;;25.60;;
53843;SDS011;39744;53.314;5.710;2023-06-22T03:33:38;63.47;;;25.70;;
53843;SDS011;39744;53.314;5.710;2023-06-22T03:36:05;51.40;;;23.33;;
53843;SDS011;39744;53.314;5.710;2023-06-22T03:38:31;107.75;;;27.88;;
53843;SDS011;39744;53.314;5.710;2023-06-22T03:40:57;49.20;;;24.95;;
53843;SDS011;39744;53.314;5.710;2023-06-22T03:43:23;77.35;;;24.83;;
53843;SDS011;39744;53.314;5.710;2023-06-22T03:45:49;46.85;;;22.60;;
53843;SDS011;39744;53.314;5.710;2023-06-22T03:48:15;35.10;;;23.15;;
53843;SDS011;39744;53.314;5.710;2023-06-22T03:50:41;103.43;;;27.02;;
53843;SDS011;39744;53.314;5.710;2023-06-22T03:53:09;37.38;;;24.00;;
53843;SDS011;39744;53.314;5.710;2023-06-22T03:55:35;32.55;;;22.35;;
53843;SDS011;39744;53.314;5.710;2023-06-22T03:58:02;33.08;;;22.50;;
53843;SDS011;39744;53.314;5.710;2023-06-22T04:00:31;33.22;;;22.75;;
53843;SDS011;39744;53.314;5.710;2023-06-22T04:02:57;31.65;;;22.90;;
53843;SDS011;39744;53.314;5.710;2023-06-22T04:05:23;33.70;;;23.63;;
53843;SDS011;39744;53.314;5.710;2023-06-22T04:07:49;32.33;;;24.02;;
53843;SDS011;39744;53.314;5.710;2023-06-22T04:10:15;33.65;;;22.77;;
53843;SDS011;39744;53.314;5.710;2023-06-22T04:12:41;39.92;;;26.83;;
53843;SDS011;39744;53.314;5.710;2023-06-22T04:15:07;38.10;;;25.52;;
53843;SDS011;39744;53.314;5.710;2023-06-22T04:17:33;36.15;;;24.48;;
53843;SDS011;39744;53.314;5.710;2023-06-22T04:20:00;38.05;;;25.83;;
53843;SDS011;39744;53.314;5.710;2023-06-22T04:22:26;39.63;;;26.08;;
53843;SDS011;39744;53.314;5.710;2023-06-22T04:24:52;45.70;;;27.52;;
53843;SDS011;39744;53.314;5.710;2023-06-22T04:27:18;34.33;;;24.58;;
53843;SDS011;39744;53.314;5.710;2023-06-22T04:29:44;40.13;;;27.23;;
53843;SDS011;39744;53.314;5.710;2023-06-22T04:32:14;38.95;;;26.52;;
53843;SDS011;39744;53.314;5.710;2023-06-22T04:34:40;40.03;;;26.70;;
53843;SDS011;39744;53.314;5.710;2023-06-22T04:37:06;36.25;;;25.25;;
53843;SDS011;39744;53.314;5.710;2023-06-22T04:39:32;35.55;;;23.67;;
53843;SDS011;39744;53.314;5.710;2023-06-22T04:41:58;38.55;;;24.10;;
53843;SDS011;39744;53.314;5.710;2023-06-22T04:44:27;38.15;;;24.25;;
53843;SDS011;39744;53.314;5.710;2023-06-22T04:46:54;36.90;;;24.33;;
53843;SDS011;39744;53.314;5.710;2023-06-22T04:49:25;28.88;;;21.25;;
53843;SDS011;39744;53.314;5.710;2023-06-22T04:51:57;39.63;;;21.85;;
53843;SDS011;39744;53.314;5.710;2023-06-22T04:54:23;29.33;;;20.00;;
53843;SDS011;39744;53.314;5.710;2023-06-22T04:56:49;34.75;;;21.17;;
53843;SDS011;39744;53.314;5.710;2023-06-22T04:59:21;29.92;;;21.13;;
53843;SDS011;39744;53.314;5.710;2023-06-22T05:01:47;29.73;;;20.10;;
53843;SDS011;39744;53.314;5.710;2023-06-22T05:04:13;26.52;;;19.48;;
53843;SDS011;39744;53.314;5.710;2023-06-22T05:06:39;27.85;;;20.00;;
53843;SDS011;39744;53.314;5.710;2023-06-22T05:09:05;26.50;;;19.35;;
53843;SDS011;39744;53.314;5.710;2023-06-22T05:11:32;28.83;;;19.95;;
53843;SDS011;39744;53.314;5.710;2023-06-22T05:13:58;29.90;;;20.10;;
53843;SDS011;39744;53.314;5.710;2023-06-22T05:16:24;30.83;;;19.73;;
53843;SDS011;39744;53.314;5.710;2023-06-22T05:18:51;31.52;;;20.52;;
53843;SDS011;39744;53.314;5.710;2023-06-22T05:21:17;31.92;;;21.05;;
53843;SDS011;39744;53.314;5.710;2023-06-22T05:23:44;38.47;;;23.85;;
53843;SDS011;39744;53.314;5.710;2023-06-22T05:26:10;42.78;;;25.30;;
53843;SDS011;39744;53.314;5.710;2023-06-22T05:28:36;39.38;;;25.02;;
53843;SDS011;39744;53.314;5.710;2023-06-22T05:31:02;40.15;;;24.65;;
53843;SDS011;39744;53.314;5.710;2023-06-22T05:33:29;47.05;;;29.45;;
53843;SDS011;39744;53.314;5.710;2023-06-22T05:35:55;36.38;;;23.65;;
53843;SDS011;39744;53.314;5.710;2023-06-22T05:38:21;40.40;;;26.45;;
53843;SDS011;39744;53.314;5.710;2023-06-22T05:40:47;33.13;;;21.65;;
53843;SDS011;39744;53.314;5.710;2023-06-22T05:43:13;39.55;;;25.10;;
53843;SDS011;39744;53.314;5.710;2023-06-22T05:45:39;35.97;;;23.83;;
53843;SDS011;39744;53.314;5.710;2023-06-22T05:48:05;36.40;;;23.70;;
53843;SDS011;39744;53.314;5.710;2023-06-22T05:50:31;37.55;;;24.60;;
53843;SDS011;39744;53.314;5.710;2023-06-22T05:52:57;36.28;;;24.33;;
53843;SDS011;39744;53.314;5.710;2023-06-22T05:55:23;34.05;;;23.58;;
53843;SDS011;39744;53.314;5.710;2023-06-22T05:57:49;31.13;;;21.55;;
53843;SDS011;39744;53.314;5.710;2023-06-22T06:00:16;35.65;;;23.40;;
53843;SDS011;39744;53.314;5.710;2023-06-22T06:02:42;37.53;;;22.85;;
53843;SDS011;39744;53.314;5.710;2023-06-22T06:05:08;34.53;;;23.08;;
53843;SDS011;39744;53.314;5.710;2023-06-22T06:07:35;34.22;;;24.23;;
53843;SDS011;39744;53.314;5.710;2023-06-22T06:10:02;37.60;;;25.08;;
53843;SDS011;39744;53.314;5.710;2023-06-22T06:12:29;36.10;;;24.13;;
53843;SDS011;39744;53.314;5.710;2023-06-22T06:14:55;33.40;;;22.88;;
53843;SDS011;39744;53.314;5.710;2023-06-22T06:17:21;33.10;;;22.77;;
53843;SDS011;39744;53.314;5.710;2023-06-22T06:19:47;33.92;;;23.58;;
53843;SDS011;39744;53.314;5.710;2023-06-22T06:22:13;35.45;;;25.20;;
53843;SDS011;39744;53.314;5.710;2023-06-22T06:24:40;35.88;;;23.92;;
53843;SDS011;39744;53.314;5.710;2023-06-22T06:27:06;36.05;;;23.67;;
53843;SDS011;39744;53.314;5.710;2023-06-22T06:29:33;33.78;;;22.25;;
53843;SDS011;39744;53.314;5.710;2023-06-22T06:31:59;35.53;;;24.25;;
53843;SDS011;39744;53.314;5.710;2023-06-22T06:34:25;31.77;;;22.55;;
53843;SDS011;39744;53.314;5.710;2023-06-22T06:36:51;32.03;;;21.38;;
53843;SDS011;39744;53.314;5.710;2023-06-22T06:39:17;32.25;;;21.63;;
53843;SDS011;39744;53.314;5.710;2023-06-22T06:41:43;33.20;;;23.52;;
53843;SDS011;39744;53.314;5.710;2023-06-22T06:44:09;28.30;;;21.20;;
53843;SDS011;39744;53.314;5.710;2023-06-22T06:46:35;29.27;;;20.20;;
53843;SDS011;39744;53.314;5.710;2023-06-22T06:49:02;29.35;;;20.30;;
53843;SDS011;39744;53.314;5.710;2023-06-22T06:51:28;31.23;;;20.75;;
53843;SDS011;39744;53.314;5.710;2023-06-22T06:53:54;31.08;;;21.35;;
53843;SDS011;39744;53.314;5.710;2023-06-22T06:56:20;27.95;;;19.98;;
53843;SDS011;39744;53.314;5.710;2023-06-22T06:58:49;29.05;;;21.25;;
53843;SDS011;39744;53.314;5.710;2023-06-22T07:01:15;30.40;;;20.42;;
53843;SDS011;39744;53.314;5.710;2023-06-22T07:03:41;28.10;;;19.75;;
53843;SDS011;39744;53.314;5.710;2023-06-22T07:06:08;27.98;;;18.63;;
53843;SDS011;39744;53.314;5.710;2023-06-22T07:08:34;24.27;;;18.10;;
53843;SDS011;39744;53.314;5.710;2023-06-22T07:11:01;26.88;;;19.15;;
53843;SDS011;39744;53.314;5.710;2023-06-22T07:13:27;25.65;;;18.00;;
53843;SDS011;39744;53.314;5.710;2023-06-22T07:15:53;25.42;;;18.23;;
53843;SDS011;39744;53.314;5.710;2023-06-22T07:18:19;24.38;;;17.65;;
53843;SDS011;39744;53.314;5.710;2023-06-22T07:20:45;24.85;;;17.50;;
53843;SDS011;39744;53.314;5.710;2023-06-22T07:23:12;23.35;;;17.25;;
53843;SDS011;39744;53.314;5.710;2023-06-22T07:25:38;25.83;;;18.30;;
53843;SDS011;39744;53.314;5.710;2023-06-22T07:28:05;26.50;;;17.80;;
53843;SDS011;39744;53.314;5.710;2023-06-22T07:30:31;25.10;;;17.63;;
53843;SDS011;39744;53.314;5.710;2023-06-22T07:32:58;22.35;;;16.88;;
53843;SDS011;39744;53.314;5.710;2023-06-22T07:35:28;23.67;;;17.73;;
53843;SDS011;39744;53.314;5.710;2023-06-22T07:37:54;24.70;;;17.80;;
53843;SDS011;39744;53.314;5.710;2023-06-22T07:40:20;25.35;;;17.00;;
53843;SDS011;39744;53.314;5.710;2023-06-22T07:42:46;24.63;;;17.35;;
53843;SDS011;39744;53.314;5.710;2023-06-22T07:45:16;24.23;;;16.38;;
53843;SDS011;39744;53.314;5.710;2023-06-22T07:47:42;25.70;;;18.15;;
53843;SDS011;39744;53.314;5.710;2023-06-22T07:50:09;24.83;;;17.08;;
53843;SDS011;39744;53.314;5.710;2023-06-22T07:52:35;24.77;;;18.40;;
53843;SDS011;39744;53.314;5.710;2023-06-22T07:55:01;27.13;;;18.20;;
53843;SDS011;39744;53.314;5.710;2023-06-22T07:57:29;26.60;;;18.15;;
53843;SDS011;39744;53.314;5.710;2023-06-22T08:00:05;27.52;;;17.40;;
53843;SDS011;39744;53.314;5.710;2023-06-22T08:02:41;22.75;;;17.02;;
53843;SDS011;39744;53.314;5.710;2023-06-22T08:05:10;22.17;;;15.35;;
53843;SDS011;39744;53.314;5.710;2023-06-22T08:07:36;20.17;;;14.20;;
53843;SDS011;39744;53.314;5.710;2023-06-22T08:10:03;17.50;;;12.65;;
53843;SDS011;39744;53.314;5.710;2023-06-22T08:12:29;20.50;;;12.88;;
53843;SDS011;39744;53.314;5.710;2023-06-22T08:14:55;22.38;;;14.68;;
53843;SDS011;39744;53.314;5.710;2023-06-22T08:17:22;18.83;;;13.20;;
53843;SDS011;39744;53.314;5.710;2023-06-22T08:19:48;18.27;;;13.07;;
53843;SDS011;39744;53.314;5.710;2023-06-22T08:22:15;22.65;;;15.00;;
53843;SDS011;39744;53.314;5.710;2023-06-22T08:24:41;21.63;;;14.68;;
53843;SDS011;39744;53.314;5.710;2023-06-22T08:27:07;23.23;;;17.25;;
53843;SDS011;39744;53.314;5.710;2023-06-22T08:29:34;23.60;;;16.48;;
53843;SDS011;39744;53.314;5.710;2023-06-22T08:32:00;22.60;;;15.07;;
53843;SDS011;39744;53.314;5.710;2023-06-22T08:34:26;21.50;;;14.38;;
53843;SDS011;39744;53.314;5.710;2023-06-22T08:36:53;19.50;;;13.82;;
53843;SDS011;39744;53.314;5.710;2023-06-22T08:39:19;15.73;;;11.63;;
53843;SDS011;39744;53.314;5.710;2023-06-22T08:41:46;19.58;;;11.43;;
53843;SDS011;39744;53.314;5.710;2023-06-22T08:44:12;17.80;;;12.45;;
53843;SDS011;39744;53.314;5.710;2023-06-22T08:46:38;14.65;;;10.38;;
53843;SDS011;39744;53.314;5.710;2023-06-22T08:49:05;12.60;;;8.07;;
53843;SDS011;39744;53.314;5.710;2023-06-22T08:51:32;10.27;;;7.10;;
53843;SDS011;39744;53.314;5.710;2023-06-22T08:53:58;10.98;;;7.45;;
53843;SDS011;39744;53.314;5.710;2023-06-22T08:56:24;13.25;;;7.78;;
53843;SDS011;39744;53.314;5.710;2023-06-22T08:58:50;12.63;;;8.07;;
53843;SDS011;39744;53.314;5.710;2023-06-22T09:01:16;10.85;;;7.10;;
53843;SDS011;39744;53.314;5.710;2023-06-22T09:03:42;12.45;;;7.63;;
53843;SDS011;39744;53.314;5.710;2023-06-22T09:06:08;10.57;;;7.65;;
53843;SDS011;39744;53.314;5.710;2023-06-22T09:08:35;11.98;;;7.57;;
53843;SDS011;39744;53.314;5.710;2023-06-22T09:11:01;9.85;;;6.90;;
53843;SDS011;39744;53.314;5.710;2023-06-22T09:13:30;12.80;;;8.98;;
53843;SDS011;39744;53.314;5.710;2023-06-22T09:15:56;14.10;;;10.77;;
53843;SDS011;39744;53.314;5.710;2023-06-22T09:18:22;14.38;;;10.52;;
53843;SDS011;39744;53.314;5.710;2023-06-22T09:20:49;16.65;;;10.52;;
53843;SDS011;39744;53.314;5.710;2023-06-22T09:23:15;14.95;;;10.15;;
53843;SDS011;39744;53.314;5.710;2023-06-22T09:25:41;13.63;;;10.30;;
53843;SDS011;39744;53.314;5.710;2023-06-22T09:28:07;14.38;;;10.10;;
53843;SDS011;39744;53.314;5.710;2023-06-22T09:30:33;13.35;;;10.52;;
53843;SDS011;39744;53.314;5.710;2023-06-22T09:32:59;16.90;;;12.73;;
53843;SDS011;39744;53.314;5.710;2023-06-22T09:35:26;21.30;;;13.63;;
53843;SDS011;39744;53.314;5.710;2023-06-22T09:37:52;18.15;;;14.30;;
53843;SDS011;39744;53.314;5.710;2023-06-22T09:40:18;16.65;;;13.18;;
53843;SDS011;39744;53.314;5.710;2023-06-22T09:42:45;18.10;;;12.77;;
53843;SDS011;39744;53.314;5.710;2023-06-22T09:45:11;16.58;;;12.63;;
53843;SDS011;39744;53.314;5.710;2023-06-22T09:47:37;19.95;;;12.80;;
53843;SDS011;39744;53.314;5.710;2023-06-22T09:50:03;15.20;;;10.80;;
53843;SDS011;39744;53.314;5.710;2023-06-22T09:52:30;13.35;;;10.45;;
53843;SDS011;39744;53.314;5.710;2023-06-22T09:54:56;15.27;;;9.35;;
53843;SDS011;39744;53.314;5.710;2023-06-22T09:57:22;13.27;;;10.32;;
53843;SDS011;39744;53.314;5.710;2023-06-22T09:59:48;12.60;;;10.02;;
53843;SDS011;39744;53.314;5.710;2023-06-22T10:02:14;13.23;;;9.73;;
53843;SDS011;39744;53.314;5.710;2023-06-22T10:04:40;12.40;;;8.88;;
53843;SDS011;39744;53.314;5.710;2023-06-22T10:07:06;11.88;;;9.35;;
53843;SDS011;39744;53.314;5.710;2023-06-22T10:09:32;12.57;;;9.98;;
53843;SDS011;39744;53.314;5.710;2023-06-22T10:11:58;12.75;;;9.52;;
53843;SDS011;39744;53.314;5.710;2023-06-22T10:14:24;10.20;;;7.90;;
53843;SDS011;39744;53.314;5.710;2023-06-22T10:16:52;10.57;;;8.05;;
53843;SDS011;39744;53.314;5.710;2023-06-22T10:19:18;13.85;;;8.63;;
53843;SDS011;39744;53.314;5.710;2023-06-22T10:21:44;10.05;;;7.65;;
53843;SDS011;39744;53.314;5.710;2023-06-22T10:24:10;11.02;;;7.80;;
53843;SDS011;39744;53.314;5.710;2023-06-22T10:26:37;9.63;;;6.75;;
53843;SDS011;39744;53.314;5.710;2023-06-22T10:29:03;11.10;;;7.47;;
53843;SDS011;39744;53.314;5.710;2023-06-22T10:31:29;9.07;;;6.05;;
53843;SDS011;39744;53.314;5.710;2023-06-22T10:33:55;10.00;;;8.02;;
53843;SDS011;39744;53.314;5.710;2023-06-22T10:36:22;9.10;;;6.82;;
53843;SDS011;39744;53.314;5.710;2023-06-22T10:38:48;8.55;;;6.93;;
53843;SDS011;39744;53.314;5.710;2023-06-22T10:41:14;9.52;;;6.32;;
53843;SDS011;39744;53.314;5.710;2023-06-22T10:43:41;10.43;;;6.47;;
53843;SDS011;39744;53.314;5.710;2023-06-22T10:46:07;9.00;;;6.85;;
53843;SDS011;39744;53.314;5.710;2023-06-22T10:48:33;9.07;;;6.32;;
53843;SDS011;39744;53.314;5.710;2023-06-22T10:50:59;10.32;;;7.07;;
53843;SDS011;39744;53.314;5.710;2023-06-22T10:53:25;8.13;;;6.43;;
53843;SDS011;39744;53.314;5.710;2023-06-22T10:55:51;8.27;;;5.28;;
53843;SDS011;39744;53.314;5.710;2023-06-22T10:58:18;8.88;;;6.72;;
53843;SDS011;39744;53.314;5.710;2023-06-22T11:00:45;8.55;;;6.43;;
53843;SDS011;39744;53.314;5.710;2023-06-22T11:03:11;9.90;;;6.30;;
53843;SDS011;39744;53.314;5.710;2023-06-22T11:05:39;9.60;;;5.90;;
53843;SDS011;39744;53.314;5.710;2023-06-22T11:08:05;8.18;;;6.53;;
53843;SDS011;39744;53.314;5.710;2023-06-22T11:10:31;10.07;;;6.03;;
53843;SDS011;39744;53.314;5.710;2023-06-22T11:12:57;8.07;;;5.40;;
53843;SDS011;39744;53.314;5.710;2023-06-22T11:15:24;10.18;;;5.72;;
53843;SDS011;39744;53.314;5.710;2023-06-22T11:17:50;8.15;;;4.85;;
53843;SDS011;39744;53.314;5.710;2023-06-22T11:20:16;9.10;;;6.05;;
53843;SDS011;39744;53.314;5.710;2023-06-22T11:22:42;8.05;;;5.00;;
53843;SDS011;39744;53.314;5.710;2023-06-22T11:25:08;8.32;;;6.25;;
53843;SDS011;39744;53.314;5.710;2023-06-22T11:27:36;7.00;;;4.72;;
53843;SDS011;39744;53.314;5.710;2023-06-22T11:30:02;6.03;;;3.65;;
53843;SDS011;39744;53.314;5.710;2023-06-22T11:32:28;6.35;;;3.58;;
53843;SDS011;39744;53.314;5.710;2023-06-22T11:34:54;4.60;;;3.30;;
53843;SDS011;39744;53.314;5.710;2023-06-22T11:37:20;9.68;;;4.60;;
53843;SDS011;39744;53.314;5.710;2023-06-22T11:39:47;6.55;;;4.45;;
53843;SDS011;39744;53.314;5.710;2023-06-22T11:42:13;5.78;;;3.60;;
53843;SDS011;39744;53.314;5.710;2023-06-22T11:44:39;6.57;;;3.25;;
53843;SDS011;39744;53.314;5.710;2023-06-22T11:47:05;5.30;;;3.15;;
53843;SDS011;39744;53.314;5.710;2023-06-22T11:49:31;7.25;;;4.15;;
53843;SDS011;39744;53.314;5.710;2023-06-22T11:51:57;5.82;;;2.67;;
53843;SDS011;39744;53.314;5.710;2023-06-22T11:54:23;6.18;;;3.70;;
53843;SDS011;39744;53.314;5.710;2023-06-22T11:56:49;6.70;;;3.65;;
53843;SDS011;39744;53.314;5.710;2023-06-22T11:59:15;6.60;;;4.22;;
53843;SDS011;39744;53.314;5.710;2023-06-22T12:01:41;8.43;;;5.15;;
53843;SDS011;39744;53.314;5.710;2023-06-22T12:04:07;5.57;;;3.13;;
53843;SDS011;39744;53.314;5.710;2023-06-22T12:06:37;5.55;;;3.10;;
53843;SDS011;39744;53.314;5.710;2023-06-22T12:09:03;5.40;;;2.90;;
53843;SDS011;39744;53.314;5.710;2023-06-22T12:11:30;4.72;;;2.90;;
53843;SDS011;39744;53.314;5.710;2023-06-22T12:13:56;4.10;;;2.13;;
53843;SDS011;39744;53.314;5.710;2023-06-22T12:16:26;3.47;;;2.10;;
53843;SDS011;39744;53.314;5.710;2023-06-22T12:18:53;4.40;;;2.85;;
53843;SDS011;39744;53.314;5.710;2023-06-22T12:21:19;4.70;;;2.70;;
53843;SDS011;39744;53.314;5.710;2023-06-22T12:23:45;4.03;;;2.50;;
53843;SDS011;39744;53.314;5.710;2023-06-22T12:26:11;3.95;;;2.40;;
53843;SDS011;39744;53.314;5.710;2023-06-22T12:28:37;4.63;;;2.17;;
53843;SDS011;39744;53.314;5.710;2023-06-22T12:31:03;4.03;;;2.28;;
53843;SDS011;39744;53.314;5.710;2023-06-22T12:33:29;3.33;;;2.00;;
53843;SDS011;39744;53.314;5.710;2023-06-22T12:35:56;4.15;;;1.80;;
53843;SDS011;39744;53.314;5.710;2023-06-22T12:38:22;3.67;;;2.00;;
53843;SDS011;39744;53.314;5.710;2023-06-22T12:40:50;4.35;;;1.70;;
53843;SDS011;39744;53.314;5.710;2023-06-22T12:43:16;5.15;;;1.73;;
53843;SDS011;39744;53.314;5.710;2023-06-22T12:45:42;4.78;;;1.70;;
53843;SDS011;39744;53.314;5.710;2023-06-22T12:48:08;3.97;;;1.67;;
53843;SDS011;39744;53.314;5.710;2023-06-22T12:50:34;4.50;;;2.00;;
53843;SDS011;39744;53.314;5.710;2023-06-22T12:53:00;3.42;;;1.50;;
53843;SDS011;39744;53.314;5.710;2023-06-22T12:55:28;4.68;;;1.70;;
53843;SDS011;39744;53.314;5.710;2023-06-22T12:57:54;3.97;;;1.80;;
53843;SDS011;39744;53.314;5.710;2023-06-22T13:00:20;4.50;;;1.70;;
53843;SDS011;39744;53.314;5.710;2023-06-22T13:02:46;3.75;;;1.52;;
53843;SDS011;39744;53.314;5.710;2023-06-22T13:05:12;4.22;;;1.50;;
53843;SDS011;39744;53.314;5.710;2023-06-22T13:07:38;2.92;;;1.52;;
53843;SDS011;39744;53.314;5.710;2023-06-22T13:10:04;2.90;;;1.63;;
53843;SDS011;39744;53.314;5.710;2023-06-22T13:12:30;3.33;;;1.60;;
53843;SDS011;39744;53.314;5.710;2023-06-22T13:14:56;4.72;;;1.60;;
53843;SDS011;39744;53.314;5.710;2023-06-22T13:17:22;3.78;;;1.50;;
53843;SDS011;39744;53.314;5.710;2023-06-22T13:19:49;3.10;;;1.50;;
53843;SDS011;39744;53.314;5.710;2023-06-22T13:22:31;4.15;;;2.00;;
53843;SDS011;39744;53.314;5.710;2023-06-22T13:24:57;3.88;;;1.60;;
53843;SDS011;39744;53.314;5.710;2023-06-22T13:27:24;2.58;;;1.30;;
53843;SDS011;39744;53.314;5.710;2023-06-22T13:29:50;2.28;;;1.20;;
53843;SDS011;39744;53.314;5.710;2023-06-22T13:32:16;2.83;;;1.40;;
53843;SDS011;39744;53.314;5.710;2023-06-22T13:34:42;3.28;;;1.40;;
53843;SDS011;39744;53.314;5.710;2023-06-22T13:37:08;2.78;;;1.30;;
53843;SDS011;39744;53.314;5.710;2023-06-22T13:39:34;2.85;;;1.40;;
53843;SDS011;39744;53.314;5.710;2023-06-22T13:42:00;3.10;;;1.40;;
53843;SDS011;39744;53.314;5.710;2023-06-22T13:44:26;3.80;;;1.80;;
53843;SDS011;39744;53.314;5.710;2023-06-22T13:46:54;2.72;;;1.50;;
53843;SDS011;39744;53.314;5.710;2023-06-22T13:49:20;2.80;;;1.35;;
53843;SDS011;39744;53.314;5.710;2023-06-22T13:51:46;4.38;;;1.88;;
53843;SDS011;39744;53.314;5.710;2023-06-22T13:54:13;4.22;;;1.30;;
53843;SDS011;39744;53.314;5.710;2023-06-22T13:56:39;4.47;;;1.90;;
53843;SDS011;39744;53.314;5.710;2023-06-22T13:59:05;3.40;;;1.45;;
53843;SDS011;39744;53.314;5.710;2023-06-22T14:01:35;4.15;;;1.50;;
53843;SDS011;39744;53.314;5.710;2023-06-22T14:04:01;5.82;;;2.00;;
53843;SDS011;39744;53.314;5.710;2023-06-22T14:06:28;3.40;;;1.63;;
53843;SDS011;39744;53.314;5.710;2023-06-22T14:08:54;4.90;;;1.80;;
53843;SDS011;39744;53.314;5.710;2023-06-22T14:11:20;5.10;;;2.00;;
53843;SDS011;39744;53.314;5.710;2023-06-22T14:13:46;6.68;;;1.60;;
53843;SDS011;39744;53.314;5.710;2023-06-22T14:16:12;5.78;;;2.03;;
53843;SDS011;39744;53.314;5.710;2023-06-22T14:18:38;3.65;;;1.75;;
53843;SDS011;39744;53.314;5.710;2023-06-22T14:21:04;4.70;;;1.60;;
53843;SDS011;39744;53.314;5.710;2023-06-22T14:23:30;3.17;;;1.52;;
53843;SDS011;39744;53.314;5.710;2023-06-22T14:25:56;4.63;;;1.60;;
53843;SDS011;39744;53.314;5.710;2023-06-22T14:28:22;4.55;;;1.95;;
53843;SDS011;39744;53.314;5.710;2023-06-22T14:30:48;3.33;;;1.70;;